Time;durP1;ratioP1;P1;durP2;ratioP2;P2;SDS_P1;SDS_P2;PMS_P1;PMS_P2;Temp;Humidity;BMP_temperature;BMP_pressure;BME280_temperature;BME280_humidity;BME280_pressure;Samples;Min_cycle;Max_cycle;Signal;HPM_P1;HPM_P2
2023/01/27 00:02:22;;;;;;;5.40;2.95;;;;;;;5.34;100.00;102472.66;5044321;28;20041;-82
2023/01/27 00:04:48;;;;;;;5.95;2.35;;;;;;;5.34;100.00;102470.91;5047294;28;20455;-82
2023/01/27 00:07:14;;;;;;;6.20;2.13;;;;;;;5.34;100.00;102470.91;5058054;28;20389;-82
2023/01/27 00:09:40;;;;;;;12.77;2.63;;;;;;;5.33;100.00;102468.34;5040839;28;20041;-82
2023/01/27 00:15:02;;;;;;;7.95;2.20;;;;;;;5.32;100.00;102457.00;5059886;28;20032;-80
2023/01/27 00:17:28;;;;;;;10.60;2.80;;;;;;;5.33;100.00;102457.84;5043655;28;20032;-82
2023/01/27 00:19:54;;;;;;;8.35;3.08;;;;;;;5.32;100.00;102459.59;5048229;28;20029;-82
2023/01/27 00:25:04;;;;;;;9.20;2.45;;;;;;;5.30;100.00;102452.72;5060917;28;20096;-82
2023/01/27 00:27:30;;;;;;;5.00;2.25;;;;;;;5.28;100.00;102447.53;5067822;28;20039;-82
2023/01/27 00:29:56;;;;;;;6.75;2.60;;;;;;;5.26;100.00;102444.13;5009669;28;20033;-82
2023/01/27 00:35:10;;;;;;;7.40;2.85;;;;;;;5.26;100.00;102441.50;5041382;28;20562;-82
2023/01/27 00:37:35;;;;;;;5.20;2.20;;;;;;;5.25;100.00;102436.31;5051592;28;20029;-82
2023/01/27 00:40:05;;;;;;;6.25;1.90;;;;;;;5.30;100.00;102422.09;5020672;28;20381;-82
2023/01/27 00:42:31;;;;;;;9.52;2.42;;;;;;;5.29;100.00;102422.16;5049922;28;20029;-82
2023/01/27 00:47:42;;;;;;;7.30;2.25;;;;;;;5.32;100.00;102417.66;5038185;28;20029;-82
2023/01/27 00:50:08;;;;;;;6.63;1.95;;;;;;;5.37;100.00;102411.41;5028753;28;20053;-82
2023/01/27 00:52:34;;;;;;;9.73;2.72;;;;;;;5.42;100.00;102412.91;5035952;28;20065;-82
2023/01/27 00:55:00;;;;;;;6.68;2.58;;;;;;;5.42;100.00;102409.41;5042942;28;20102;-82
2023/01/27 00:57:26;;;;;;;9.13;3.70;;;;;;;5.41;100.00;102408.59;5041542;28;20032;-80
2023/01/27 00:59:52;;;;;;;7.90;2.67;;;;;;;5.43;100.00;102414.59;5048939;28;20451;-80
2023/01/27 01:02:18;;;;;;;7.57;2.75;;;;;;;5.42;100.00;102417.28;5034893;28;20464;-82
2023/01/27 01:04:43;;;;;;;6.97;2.20;;;;;;;5.38;100.00;102407.84;5069506;28;20112;-82
2023/01/27 01:07:09;;;;;;;12.65;2.55;;;;;;;5.37;100.00;102400.91;5063975;28;20503;-82
2023/01/27 01:09:35;;;;;;;8.55;2.67;;;;;;;5.32;100.00;102398.44;5041854;28;20029;-82
2023/01/27 01:12:02;;;;;;;4.80;1.88;;;;;;;5.26;100.00;102401.31;5049609;28;20062;-82
2023/01/27 01:14:29;;;;;;;12.63;2.83;;;;;;;5.21;100.00;102398.88;5050423;28;20127;-82
2023/01/27 01:16:55;;;;;;;6.10;2.38;;;;;;;5.23;100.00;102399.66;5029948;28;20039;-82
2023/01/27 01:19:21;;;;;;;9.43;2.70;;;;;;;5.26;100.00;102394.31;5067066;28;20033;-82
2023/01/27 01:21:47;;;;;;;9.27;2.22;;;;;;;5.26;100.00;102396.91;5045957;28;20086;-82
2023/01/27 01:24:13;;;;;;;4.65;1.83;;;;;;;5.29;100.00;102390.69;5030603;28;20090;-82
2023/01/27 01:26:39;;;;;;;6.30;2.15;;;;;;;5.30;100.00;102395.03;5034809;28;20369;-82
2023/01/27 01:29:05;;;;;;;6.70;2.25;;;;;;;5.34;100.00;102397.47;5039859;28;20452;-82
2023/01/27 01:31:31;;;;;;;9.90;2.42;;;;;;;5.34;100.00;102396.63;5038365;28;20052;-82
2023/01/27 01:33:56;;;;;;;6.63;2.25;;;;;;;5.33;100.00;102392.28;5027397;28;20029;-82
2023/01/27 01:36:23;;;;;;;11.25;2.20;;;;;;;5.31;100.00;102384.50;5042448;28;20041;-82
2023/01/27 01:38:55;;;;;;;11.63;2.00;;;;;;;5.34;100.00;102389.63;5038504;28;20370;-82
2023/01/27 01:41:21;;;;;;;12.20;2.28;;;;;;;5.32;100.00;102391.44;5038777;28;20108;-80
2023/01/27 01:43:49;;;;;;;6.22;2.28;;;;;;;5.32;100.00;102388.81;5023668;28;20520;-80
2023/01/27 01:46:16;;;;;;;6.03;1.88;;;;;;;5.34;100.00;102381.75;5038112;28;20099;-82
2023/01/27 01:48:46;;;;;;;8.32;2.05;;;;;;;5.37;100.00;102382.53;5039556;28;20120;-82
2023/01/27 01:51:27;;;;;;;5.03;2.00;;;;;;;5.36;100.00;102383.44;5042694;28;20038;-81
2023/01/27 01:54:13;;;;;;;11.50;2.10;;;;;;;5.34;100.00;102378.25;5016833;28;20045;-82
2023/01/27 01:57:02;;;;;;;10.70;2.35;;;;;;;5.31;100.00;102365.28;5038973;28;20025;-82
2023/01/27 01:59:35;;;;;;;7.75;1.80;;;;;;;5.28;100.00;102366.25;5053518;28;20468;-82
2023/01/27 02:02:10;;;;;;;6.57;1.75;;;;;;;5.32;100.00;102369.59;5006300;28;20550;-80
2023/01/27 02:04:40;;;;;;;8.48;2.10;;;;;;;5.32;100.00;102370.44;5040980;28;20375;-80
2023/01/27 02:07:12;;;;;;;5.53;1.60;;;;;;;5.33;100.00;102363.44;5049305;28;20056;-82
2023/01/27 02:09:38;;;;;;;11.00;2.65;;;;;;;5.28;100.00;102355.78;5060333;28;20033;-82
2023/01/27 02:12:05;;;;;;;5.63;1.77;;;;;;;5.21;100.00;102355.16;5050725;28;20075;-82
2023/01/27 02:14:32;;;;;;;7.88;2.25;;;;;;;5.22;100.00;102356.03;5049719;28;20036;-82
2023/01/27 02:16:58;;;;;;;7.13;1.92;;;;;;;5.22;100.00;102354.22;5042082;28;20040;-80
2023/01/27 02:19:50;;;;;;;6.38;2.08;;;;;;;5.29;100.00;102359.22;5049080;28;20032;-80
2023/01/27 02:22:38;;;;;;;4.95;1.67;;;;;;;5.33;100.00;102363.44;5050910;28;20036;-82
2023/01/27 02:25:33;;;;;;;10.77;1.70;;;;;;;5.36;100.00;102358.09;5046471;28;20049;-82
2023/01/27 02:28:04;;;;;;;5.47;2.33;;;;;;;5.37;100.00;102366.81;4990096;28;20523;-82
2023/01/27 02:30:30;;;;;;;4.15;1.90;;;;;;;5.38;100.00;102361.50;5056227;28;20056;-81
2023/01/27 02:32:56;;;;;;;6.80;1.88;;;;;;;5.42;100.00;102363.06;5061475;28;20029;-82
2023/01/27 02:35:49;;;;;;;3.08;1.67;;;;;;;5.48;100.00;102363.75;5020513;28;20123;-81
2023/01/27 02:38:16;;;;;;;4.15;1.60;;;;;;;5.50;100.00;102368.00;5049947;28;20047;-82
2023/01/27 02:40:45;;;;;;;6.93;1.63;;;;;;;5.52;100.00;102375.81;5042460;28;20039;-82
2023/01/27 02:43:10;;;;;;;5.43;1.90;;;;;;;5.48;100.00;102369.81;5035328;28;20033;-82
2023/01/27 02:45:36;;;;;;;7.05;1.73;;;;;;;5.48;100.00;102371.63;5066724;28;20082;-82
2023/01/27 02:48:02;;;;;;;4.30;1.30;;;;;;;5.52;100.00;102363.56;5021973;28;20110;-81
2023/01/27 02:50:29;;;;;;;7.25;2.08;;;;;;;5.53;100.00;102365.25;5041593;28;20036;-81
2023/01/27 02:52:54;;;;;;;9.00;2.03;;;;;;;5.48;100.00;102375.06;5063888;28;20560;-82
2023/01/27 02:55:21;;;;;;;6.95;2.20;;;;;;;5.45;100.00;102362.94;5041756;28;20041;-81
2023/01/27 02:57:48;;;;;;;3.53;1.98;;;;;;;5.42;100.00;102368.31;5063611;28;20628;-82
2023/01/27 03:00:52;;;;;;;4.43;1.80;;;;;;;5.38;100.00;102371.13;5015259;28;20087;-82
2023/01/27 03:03:18;;;;;;;6.35;1.83;;;;;;;5.33;100.00;102358.22;5056749;28;20041;-82
2023/01/27 03:05:45;;;;;;;5.90;2.53;;;;;;;5.33;100.00;102360.81;5043046;28;20032;-82
2023/01/27 03:08:11;;;;;;;4.80;2.00;;;;;;;5.27;100.00;102348.81;5038723;28;20043;-81
2023/01/27 03:10:37;;;;;;;8.80;2.08;;;;;;;5.25;100.00;102357.66;5043873;28;20035;-81
2023/01/27 03:13:04;;;;;;;8.50;2.17;;;;;;;5.23;100.00;102357.72;4995250;28;20480;-81
2023/01/27 03:18:17;;;;;;;10.07;2.65;;;;;;;5.17;100.00;102368.44;5048210;28;20127;-82
2023/01/27 03:20:45;;;;;;;4.90;2.30;;;;;;;5.17;100.00;102357.97;5042772;28;20075;-82
2023/01/27 03:23:14;;;;;;;7.05;2.17;;;;;;;5.15;100.00;102352.78;5039504;28;20091;-82
2023/01/27 03:25:43;;;;;;;7.30;2.03;;;;;;;5.14;100.00;102352.84;5031337;28;20072;-82
2023/01/27 03:28:10;;;;;;;10.77;2.65;;;;;;;5.13;100.00;102353.78;5064194;28;20054;-82
2023/01/27 03:30:43;;;;;;;5.90;2.28;;;;;;;5.11;100.00;102348.59;5052327;28;20043;-82
2023/01/27 03:33:17;;;;;;;6.60;2.42;;;;;;;5.14;100.00;102347.59;5053981;28;20033;-82
2023/01/27 03:46:57;;;;;;;7.88;2.22;;;;;;;5.16;100.00;102337.91;5053664;28;20058;-82
2023/01/27 03:49:23;;;;;;;6.95;2.13;;;;;;;5.16;100.00;102338.75;5039105;28;20723;-82
2023/01/27 03:51:48;;;;;;;3.83;2.05;;;;;;;5.20;100.00;102335.09;5031644;28;20083;-82
2023/01/27 03:54:14;;;;;;;7.82;2.30;;;;;;;5.24;100.00;102332.34;5015646;28;20091;-82
2023/01/27 03:56:40;;;;;;;6.97;2.45;;;;;;;5.26;100.00;102320.88;5058807;28;20117;-82
2023/01/27 03:59:06;;;;;;;7.22;1.90;;;;;;;5.27;100.00;102319.97;5066795;28;20035;-82
2023/01/27 04:01:31;;;;;;;11.55;3.00;;;;;;;5.28;100.00;102318.19;5054382;28;20024;-82
2023/01/27 04:06:52;;;;;;;7.72;2.22;;;;;;;5.39;100.00;102326.47;5046529;28;20087;-82
2023/01/27 04:09:22;;;;;;;5.82;1.83;;;;;;;5.44;100.00;102321.91;5043442;28;20034;-82
2023/01/27 04:11:54;;;;;;;7.20;2.10;;;;;;;5.46;100.00;102322.69;5036637;28;20493;-81
2023/01/27 04:14:29;;;;;;;7.90;2.13;;;;;;;5.55;100.00;102324.06;5042855;28;20083;-80
2023/01/27 04:17:00;;;;;;;6.90;1.95;;;;;;;5.57;100.00;102313.53;5026368;28;20124;-82
2023/01/27 04:19:26;;;;;;;4.03;1.80;;;;;;;5.58;100.00;102308.22;5025152;28;20032;-82
2023/01/27 04:21:53;;;;;;;7.25;1.92;;;;;;;5.62;100.00;102306.31;5037770;28;20024;-82
2023/01/27 04:24:22;;;;;;;7.35;1.70;;;;;;;5.65;100.00;102295.69;5049301;28;20028;-82
2023/01/27 04:27:04;;;;;;;4.47;1.85;;;;;;;5.67;100.00;102303.50;5047635;28;20131;-82
2023/01/27 04:29:33;;;;;;;3.88;2.47;;;;;;;5.65;100.00;102300.06;5042232;28;20045;-82
2023/01/27 04:31:59;;;;;;;2.85;1.50;;;;;;;5.66;100.00;102299.16;5022509;28;20036;-82
2023/01/27 04:34:26;;;;;;;4.95;1.98;;;;;;;5.69;100.00;102299.00;5052437;28;20384;-81
2023/01/27 04:36:53;;;;;;;5.43;1.90;;;;;;;5.69;100.00;102297.25;5044467;28;20040;-82
2023/01/27 04:39:19;;;;;;;5.55;1.73;;;;;;;5.67;100.00;102291.22;5033415;28;20056;-82
2023/01/27 04:41:46;;;;;;;5.88;2.05;;;;;;;5.65;100.00;102293.06;5017540;28;20037;-82
2023/01/27 04:44:12;;;;;;;6.32;2.10;;;;;;;5.63;100.00;102302.75;5050351;28;20037;-82
2023/01/27 04:46:38;;;;;;;6.57;1.85;;;;;;;5.57;100.00;102309.09;5056575;28;20028;-82
2023/01/27 04:49:04;;;;;;;5.18;2.42;;;;;;;5.58;100.00;102309.97;5017852;28;20400;-82
2023/01/27 04:51:31;;;;;;;4.57;1.80;;;;;;;5.57;100.00;102319.59;5041860;28;20039;-81
2023/01/27 04:53:57;;;;;;;3.97;1.70;;;;;;;5.56;100.00;102312.66;5033120;28;20461;-82
2023/01/27 04:56:28;;;;;;;4.30;2.00;;;;;;;5.56;100.00;102312.66;5040534;28;20060;-82
2023/01/27 04:58:58;;;;;;;5.28;2.35;;;;;;;5.53;100.00;102304.91;5033018;28;20068;-82
2023/01/27 05:01:23;;;;;;;7.10;2.30;;;;;;;5.48;100.00;102309.50;5046951;28;20071;-82
2023/01/27 05:03:49;;;;;;;5.30;2.30;;;;;;;5.48;100.00;102316.53;5056002;28;20060;-82
2023/01/27 05:06:15;;;;;;;3.78;1.95;;;;;;;5.41;100.00;102318.56;5052216;28;20033;-82
2023/01/27 05:08:41;;;;;;;4.15;2.20;;;;;;;5.34;100.00;102312.69;5051739;28;20508;-82
2023/01/27 05:11:07;;;;;;;5.10;2.47;;;;;;;5.29;100.00;102314.66;5036476;28;20056;-82
2023/01/27 05:13:34;;;;;;;10.10;2.40;;;;;;;5.23;100.00;102315.75;5030828;28;20036;-82
2023/01/27 05:16:03;;;;;;;7.70;2.40;;;;;;;5.22;100.00;102308.81;5053431;28;20079;-82
2023/01/27 05:18:29;;;;;;;4.18;2.38;;;;;;;5.19;100.00;102309.78;5053224;28;20045;-80
2023/01/27 05:20:59;;;;;;;9.82;2.35;;;;;;;5.22;100.00;102304.41;5048792;28;20486;-81
2023/01/27 05:23:34;;;;;;;7.65;2.08;;;;;;;5.21;100.00;102301.84;5022982;28;20057;-82
2023/01/27 05:26:14;;;;;;;5.68;2.03;;;;;;;5.22;100.00;102298.34;5019757;28;20077;-82
2023/01/27 05:28:42;;;;;;;5.18;1.90;;;;;;;5.21;100.00;102296.63;5049736;28;20043;-82
2023/01/27 05:31:12;;;;;;;7.30;2.17;;;;;;;5.25;100.00;102297.34;5060378;28;20162;-82
2023/01/27 05:33:39;;;;;;;4.65;2.00;;;;;;;5.22;100.00;102287.84;5061299;28;20392;-81
2023/01/27 05:36:06;;;;;;;7.80;2.03;;;;;;;5.16;100.00;102298.59;5049623;28;20436;-80
2023/01/27 05:38:32;;;;;;;4.45;2.15;;;;;;;5.07;100.00;102298.03;5030102;28;20501;-82
2023/01/27 05:41:04;;;;;;;6.25;1.70;;;;;;;5.06;100.00;102304.22;5046734;28;20033;-82
2023/01/27 05:43:32;;;;;;;4.95;1.92;;;;;;;5.06;100.00;102300.72;5040053;28;20094;-80
2023/01/27 05:46:07;;;;;;;7.70;1.65;;;;;;;5.07;100.00;102298.03;5052698;28;20032;-80
2023/01/27 05:48:39;;;;;;;7.10;1.50;;;;;;;5.07;100.00;102295.44;5071925;28;20047;-82
2023/01/27 05:51:06;;;;;;;5.40;1.63;;;;;;;5.14;100.00;102297.78;5052241;28;20048;-82
2023/01/27 05:53:33;;;;;;;4.22;1.73;;;;;;;5.20;100.00;102303.66;5052047;28;20036;-82
2023/01/27 05:55:59;;;;;;;6.32;1.48;;;;;;;5.19;100.00;102299.31;5038055;28;20036;-82
2023/01/27 05:58:25;;;;;;;6.65;1.55;;;;;;;5.15;100.00;102300.34;5052000;28;20033;-82
2023/01/27 06:00:52;;;;;;;5.40;1.55;;;;;;;5.13;100.00;102301.34;5053087;28;20032;-82
2023/01/27 06:03:18;;;;;;;5.97;1.50;;;;;;;5.04;100.00;102302.56;5055841;28;20032;-81
2023/01/27 06:05:50;;;;;;;4.80;1.50;;;;;;;5.05;100.00;102305.09;5076768;28;20028;-82
2023/01/27 06:08:16;;;;;;;2.38;1.35;;;;;;;5.01;100.00;102298.28;5038408;28;20043;-82
2023/01/27 06:10:42;;;;;;;2.63;1.13;;;;;;;5.02;100.00;102297.38;5051113;28;20029;-82
2023/01/27 06:13:08;;;;;;;4.18;1.40;;;;;;;5.04;100.00;102302.56;5070460;28;20404;-81
2023/01/27 06:15:33;;;;;;;2.60;1.08;;;;;;;5.03;100.00;102300.84;5038506;28;20041;-82
2023/01/27 06:17:59;;;;;;;7.35;1.25;;;;;;;4.99;100.00;102299.25;5043671;28;20040;-82
2023/01/27 06:20:25;;;;;;;3.30;1.17;;;;;;;5.00;100.00;102303.59;5048255;28;20440;-82
2023/01/27 06:22:51;;;;;;;6.82;1.00;;;;;;;5.00;100.00;102299.19;5054140;28;20548;-82
2023/01/27 06:25:16;;;;;;;11.20;1.67;;;;;;;5.03;100.00;102299.06;5068137;28;20395;-82
2023/01/27 06:27:43;;;;;;;4.47;1.50;;;;;;;5.03;100.00;102299.06;5045204;28;20032;-81
2023/01/27 06:30:09;;;;;;;7.65;1.52;;;;;;;5.02;100.00;102302.63;5052840;28;20111;-82
2023/01/27 06:32:35;;;;;;;4.13;1.40;;;;;;;4.99;100.00;102294.00;5063379;28;20393;-82
2023/01/27 06:35:02;;;;;;;2.92;1.02;;;;;;;4.94;100.00;102296.81;5048797;28;20044;-82
2023/01/27 06:37:29;;;;;;;3.22;1.25;;;;;;;4.93;100.00;102295.13;5039303;28;20519;-82
2023/01/27 06:39:54;;;;;;;4.70;1.30;;;;;;;4.95;100.00;102295.94;5050033;28;20044;-82
2023/01/27 06:42:21;;;;;;;4.85;1.13;;;;;;;4.97;100.00;102299.31;5051552;28;20025;-81
2023/01/27 06:44:48;;;;;;;2.30;1.00;;;;;;;4.98;100.00;102308.91;5054403;28;20116;-80
2023/01/27 06:47:14;;;;;;;4.18;1.35;;;;;;;4.96;100.00;102301.09;5050825;28;20171;-81
2023/01/27 06:49:39;;;;;;;2.33;1.02;;;;;;;4.98;100.00;102308.91;5059281;28;20476;-82
2023/01/27 06:52:05;;;;;;;4.35;0.80;;;;;;;5.01;100.00;102302.69;5043003;28;20440;-82
2023/01/27 06:54:31;;;;;;;2.25;1.00;;;;;;;5.05;100.00;102302.50;5024735;28;20044;-82
2023/01/27 06:56:57;;;;;;;5.68;1.00;;;;;;;5.05;100.00;102299.88;5044292;28;20040;-81
2023/01/27 06:59:22;;;;;;;3.60;0.90;;;;;;;5.03;100.00;102293.81;5027890;28;20039;-80
2023/01/27 07:01:48;;;;;;;3.92;1.30;;;;;;;5.00;100.00;102293.13;5042500;28;20481;-82
2023/01/27 07:04:14;;;;;;;5.57;0.85;;;;;;;4.97;100.00;102294.06;5049546;28;20393;-82
2023/01/27 07:06:40;;;;;;;5.60;0.80;;;;;;;4.93;100.00;102295.13;5041980;28;20470;-81
2023/01/27 07:09:05;;;;;;;5.65;1.50;;;;;;;4.88;100.00;102292.69;5034075;28;20030;-82
2023/01/27 07:11:31;;;;;;;3.92;1.25;;;;;;;4.86;100.00;102291.06;5026167;28;20083;-82
2023/01/27 07:13:57;;;;;;;1.20;0.60;;;;;;;4.80;100.00;102290.38;5053684;28;20033;-82
2023/01/27 07:16:23;;;;;;;5.60;0.63;;;;;;;4.78;100.00;102294.81;5039643;28;20035;-82
2023/01/27 07:18:48;;;;;;;5.60;0.88;;;;;;;4.76;100.00;102286.16;5053058;28;20523;-80
2023/01/27 07:21:14;;;;;;;8.93;0.93;;;;;;;4.76;100.00;102277.47;5046689;28;20028;-80
2023/01/27 07:23:40;;;;;;;2.28;0.73;;;;;;;4.79;100.00;102287.81;5043809;28;20029;-81
2023/01/27 07:26:06;;;;;;;4.88;0.80;;;;;;;4.77;100.00;102295.72;5057675;28;20531;-82
2023/01/27 07:28:31;;;;;;;4.60;0.73;;;;;;;4.78;100.00;102293.97;5034679;28;20044;-82
2023/01/27 07:31:01;;;;;;;3.65;1.05;;;;;;;4.80;100.00;102300.00;5071457;28;20077;-82
2023/01/27 07:33:27;;;;;;;3.53;0.70;;;;;;;4.80;100.00;102300.84;5058309;28;20401;-82
2023/01/27 07:35:54;;;;;;;3.33;0.80;;;;;;;4.79;100.00;102301.78;5067470;28;20025;-82
2023/01/27 07:38:20;;;;;;;5.75;0.90;;;;;;;4.75;100.00;102294.94;5044452;28;20036;-81
2023/01/27 07:40:46;;;;;;;2.45;0.70;;;;;;;4.72;100.00;102303.78;5043278;28;20048;-82
2023/01/27 07:43:12;;;;;;;1.10;0.40;;;;;;;4.72;100.00;102309.00;5022402;28;20032;-83
2023/01/27 07:45:39;;;;;;;3.88;0.90;;;;;;;4.71;100.00;102306.47;5041687;28;20598;-82
2023/01/27 07:48:07;;;;;;;1.17;0.77;;;;;;;4.75;100.00;102307.16;5066964;28;20028;-82
2023/01/27 07:50:34;;;;;;;9.70;3.13;;;;;;;4.72;100.00;102305.53;5065286;28;20031;-82
2023/01/27 07:53:01;;;;;;;1.38;0.70;;;;;;;4.71;100.00;102302.03;5029603;28;20519;-80
2023/01/27 07:55:28;;;;;;;2.97;0.98;;;;;;;4.69;100.00;102300.41;5034646;28;20037;-81
2023/01/27 07:57:55;;;;;;;3.25;0.80;;;;;;;4.66;100.00;102297.91;5056907;28;20043;-82
2023/01/27 08:00:21;;;;;;;3.40;1.08;;;;;;;4.62;100.00;102296.34;5045851;28;20125;-82
2023/01/27 08:02:51;;;;;;;3.20;0.88;;;;;;;4.60;100.00;102306.88;5048467;28;20195;-82
2023/01/27 08:05:16;;;;;;;4.07;1.30;;;;;;;4.50;100.00;102301.13;5043963;28;20330;-82
2023/01/27 08:07:42;;;;;;;3.17;1.10;;;;;;;4.48;100.00;102310.78;5027147;28;20036;-82
2023/01/27 08:10:09;;;;;;;2.70;1.08;;;;;;;4.40;100.00;102308.47;5058114;28;20040;-83
2023/01/27 08:12:35;;;;;;;4.45;1.20;;;;;;;4.36;100.00;102313.88;5063799;28;20028;-82
2023/01/27 08:15:01;;;;;;;5.50;1.60;;;;;;;4.33;100.00;102299.16;5012296;28;21076;-82
2023/01/27 08:17:26;;;;;;;3.22;2.20;;;;;;;4.32;100.00;102298.28;5063356;28;20158;-83
2023/01/27 08:19:52;;;;;;;4.72;1.02;;;;;;;4.36;100.00;102287.69;5044123;28;20069;-82
2023/01/27 08:22:21;;;;;;;2.90;1.10;;;;;;;4.29;100.00;102280.06;5039417;28;20039;-82
2023/01/27 08:24:48;;;;;;;3.42;0.90;;;;;;;4.30;100.00;102283.56;5052383;28;20090;-82
2023/01/27 08:27:14;;;;;;;6.47;0.90;;;;;;;4.31;100.00;102291.34;5028416;28;20079;-81
2023/01/27 08:29:40;;;;;;;3.65;1.05;;;;;;;4.29;100.00;102298.41;5009739;28;20515;-80
2023/01/27 08:32:06;;;;;;;5.10;1.27;;;;;;;4.26;100.00;102292.41;5050047;28;20037;-82
2023/01/27 08:34:32;;;;;;;5.63;1.08;;;;;;;4.25;100.00;102304.66;5026320;28;20033;-82
2023/01/27 08:36:58;;;;;;;6.20;1.50;;;;;;;4.27;100.00;102322.94;5035935;28;20029;-82
2023/01/27 08:39:24;;;;;;;2.03;1.13;;;;;;;4.23;100.00;102330.03;4996187;28;20086;-82
2023/01/27 08:41:49;;;;;;;8.57;1.52;;;;;;;4.17;100.00;102289.22;5045743;28;20040;-83
2023/01/27 08:44:15;;;;;;;3.88;1.40;;;;;;;3.88;100.00;102299.00;5041851;28;20044;-82
2023/01/27 08:46:41;;;;;;;2.55;1.20;;;;;;;3.76;100.00;102315.13;5011593;28;20473;-82
2023/01/27 08:49:07;;;;;;;4.60;1.10;;;;;;;3.73;100.00;102329.16;5022219;28;20025;-82
2023/01/27 08:51:33;;;;;;;7.00;1.58;;;;;;;3.80;100.00;102340.25;5042498;28;20485;-82
2023/01/27 08:53:58;;;;;;;3.33;1.40;;;;;;;3.82;100.00;102320.97;5034714;28;20481;-82
2023/01/27 08:56:24;;;;;;;3.20;1.23;;;;;;;3.88;100.00;102325.16;5003181;28;20041;-82
2023/01/27 08:58:51;;;;;;;6.78;1.60;;;;;;;3.90;100.00;102307.63;5010141;28;20068;-81
2023/01/27 09:01:19;;;;;;;5.80;1.70;;;;;;;3.91;100.00;102335.50;5010889;28;20394;-81
2023/01/27 09:03:44;;;;;;;6.20;1.67;;;;;;;3.96;100.00;102327.50;5045367;28;20091;-82
2023/01/27 09:06:12;;;;;;;2.88;1.33;;;;;;;4.04;100.00;102324.63;5025086;28;20060;-82
2023/01/27 09:08:39;;;;;;;8.38;2.05;;;;;;;4.07;100.00;102320.13;5047539;28;20123;-82
2023/01/27 09:11:14;;;;;;;3.92;1.83;;;;;;;4.15;100.00;102325.09;5049724;28;20167;-83
2023/01/27 09:13:40;;;;;;;5.03;1.90;;;;;;;4.20;100.00;102310.03;5020170;28;20040;-83
2023/01/27 09:16:06;;;;;;;3.72;2.00;;;;;;;4.25;100.00;102319.50;5005857;28;20026;-83
2023/01/27 09:18:33;;;;;;;9.07;2.05;;;;;;;4.29;100.00;102310.63;5040028;28;20037;-83
2023/01/27 09:21:05;;;;;;;3.88;1.70;;;;;;;4.32;100.00;102316.63;5049445;28;20404;-82
2023/01/27 09:23:32;;;;;;;8.88;2.05;;;;;;;4.29;100.00;102306.25;5012650;28;20048;-80
2023/01/27 09:25:58;;;;;;;4.22;2.10;;;;;;;4.30;100.00;102312.34;5037362;28;20057;-81
2023/01/27 09:28:23;;;;;;;3.25;1.98;;;;;;;4.31;100.00;102314.91;5027663;28;20037;-82
2023/01/27 09:30:49;;;;;;;3.40;1.67;;;;;;;4.30;100.00;102305.34;5005200;28;20114;-82
2023/01/27 09:33:15;;;;;;;6.95;2.13;;;;;;;4.32;100.00;102318.38;5018650;28;20044;-82
2023/01/27 09:35:50;;;;;;;7.10;1.63;;;;;;;4.37;100.00;102305.09;5039725;28;20057;-82
2023/01/27 09:38:21;;;;;;;10.40;2.00;;;;;;;4.38;100.00;102312.91;5003578;28;20489;-83
2023/01/27 09:41:12;;;;;;;3.92;1.70;;;;;;;4.44;100.00;102317.06;5027352;28;20555;-83
2023/01/27 09:43:52;;;;;;;5.40;2.38;;;;;;;4.34;100.00;102312.19;5024034;28;20029;-82
2023/01/27 09:46:57;;;;;;;8.13;1.90;;;;;;;4.40;100.00;102318.06;5037725;28;20040;-83
2023/01/27 09:49:32;;;;;;;9.10;1.90;;;;;;;4.38;100.00;102310.28;4992179;28;20041;-83
2023/01/27 09:52:35;;;;;;;4.80;1.83;;;;;;;4.38;100.00;102315.50;5040442;28;20119;-80
2023/01/27 09:55:30;;;;;;;5.28;1.80;;;;;;;4.41;100.00;102319.81;5019603;28;20823;-81
2023/01/27 09:58:13;;;;;;;4.78;1.38;;;;;;;4.44;100.00;102312.66;5001762;28;20092;-82
2023/01/27 10:01:12;;;;;;;4.45;1.50;;;;;;;4.56;100.00;102308.75;5034107;28;20040;-83
2023/01/27 10:03:50;;;;;;;5.68;1.52;;;;;;;4.68;100.00;102311.81;5023118;28;20041;-82
2023/01/27 10:06:48;;;;;;;4.20;1.73;;;;;;;4.78;100.00;102312.31;5012237;28;20033;-83
2023/01/27 10:09:35;;;;;;;8.00;1.50;;;;;;;4.88;100.00;102316.28;5000014;28;20080;-82
2023/01/27 10:12:41;;;;;;;8.50;1.80;;;;;;;4.97;100.00;102320.28;5035617;28;20025;-82
2023/01/27 10:15:32;;;;;;;6.82;1.80;;;;;;;4.99;100.00;102312.34;5037633;28;20481;-81
2023/01/27 10:18:51;;;;;;;3.67;2.28;;;;;;;4.98;100.00;102314.16;5023942;28;20029;-83
2023/01/27 10:21:26;;;;;;;4.38;2.10;;;;;;;4.95;100.00;102325.59;4996707;28;20055;-82
2023/01/27 10:24:03;;;;;;;5.07;1.65;;;;;;;4.99;100.00;102326.31;5010065;28;20037;-83
2023/01/27 10:26:41;;;;;;;5.82;1.80;;;;;;;5.02;100.00;102326.19;5029633;28;20501;-83
2023/01/27 10:29:23;;;;;;;2.03;1.55;;;;;;;5.03;100.00;102335.75;5024753;28;20088;-82
2023/01/27 10:32:08;;;;;;;5.60;1.80;;;;;;;5.12;100.00;102329.31;5044266;28;20610;-82
2023/01/27 10:34:49;;;;;;;6.65;2.00;;;;;;;5.17;100.00;102324.75;5024825;28;20049;-83
2023/01/27 10:37:21;;;;;;;7.18;1.90;;;;;;;5.25;100.00;102320.94;5003707;28;20032;-82
2023/01/27 10:39:59;;;;;;;4.70;1.80;;;;;;;5.31;100.00;102318.06;5042744;28;20064;-82
2023/01/27 10:42:58;;;;;;;3.53;1.77;;;;;;;5.43;100.00;102321.97;5046619;28;20608;-83
2023/01/27 10:45:27;;;;;;;4.72;1.40;;;;;;;5.55;100.00;102313.59;5016577;28;20045;-81
2023/01/27 10:48:07;;;;;;;4.70;1.70;;;;;;;5.67;100.00;102311.38;5047103;28;20035;-82
2023/01/27 10:50:38;;;;;;;6.20;1.65;;;;;;;5.69;100.00;102307.75;5012881;28;20103;-83
2023/01/27 10:53:13;;;;;;;2.90;1.30;;;;;;;5.75;100.00;102317.09;5045164;28;20041;-83
2023/01/27 10:55:54;;;;;;;2.92;1.20;;;;;;;5.83;100.00;102307.13;5031783;28;20449;-82
2023/01/27 10:58:38;;;;;;;1.45;0.40;;;;;;;5.95;100.00;102307.53;5027866;28;20481;-82
2023/01/27 11:01:06;;;;;;;2.83;0.50;;;;;;;5.98;100.00;102301.28;5030760;28;20033;-82
2023/01/27 11:03:55;;;;;;;2.63;0.90;;;;;;;6.03;100.00;102283.56;5026204;28;20497;-81
2023/01/27 11:06:24;;;;;;;1.23;0.60;;;;;;;6.09;100.00;102288.56;5048313;28;20068;-80
2023/01/27 11:08:58;;;;;;;1.58;0.50;;;;;;;6.17;100.00;102294.34;5027035;28;20503;-82
2023/01/27 11:11:43;;;;;;;1.75;0.57;;;;;;;6.25;100.00;102295.75;5033729;28;20239;-82
2023/01/27 11:14:17;;;;;;;1.77;0.40;;;;;;;6.29;100.00;102286.81;5028003;28;20025;-82
2023/01/27 11:16:51;;;;;;;1.38;0.50;;;;;;;6.31;100.00;102279.69;5027095;28;20037;-81
2023/01/27 11:19:39;;;;;;;0.77;0.38;;;;;;;6.36;100.00;102279.50;5046249;28;20404;-82
2023/01/27 11:22:17;;;;;;;2.05;0.40;;;;;;;6.41;100.00;102278.38;5013279;28;20064;-82
2023/01/27 11:25:03;;;;;;;1.88;0.20;;;;;;;6.51;100.00;102277.94;5018495;28;20039;-83
2023/01/27 11:27:44;;;;;;;;;;;;;;;6.46;100.00;102283.41;5037262;28;20045;-83
2023/01/27 11:30:24;;;;;;;0.22;0.22;;;;;;;6.54;100.00;102278.66;5071118;28;20400;-82
2023/01/27 11:32:58;;;;;;;0.90;0.20;;;;;;;6.62;100.00;102275.66;5078452;28;20108;-83
2023/01/27 11:35:25;;;;;;;4.80;0.40;;;;;;;6.67;100.00;102283.31;5035159;28;20530;-83
2023/01/27 11:37:51;;;;;;;1.98;0.32;;;;;;;6.75;100.00;102277.69;5053022;28;20032;-80
2023/01/27 11:40:29;;;;;;;1.58;0.40;;;;;;;6.78;100.00;102286.31;5049216;28;20120;-80
2023/01/27 11:42:59;;;;;;;1.15;0.30;;;;;;;6.85;100.00;102288.63;5031626;28;20124;-83
2023/01/27 11:45:29;;;;;;;1.55;0.43;;;;;;;6.94;100.00;102280.28;5045420;28;20043;-83
2023/01/27 11:47:59;;;;;;;0.63;0.40;;;;;;;6.98;100.00;102280.97;5027465;28;20032;-81
2023/01/27 11:50:29;;;;;;;2.53;1.00;;;;;;;7.07;100.00;102277.91;5051972;28;20089;-80
2023/01/27 11:53:28;;;;;;;2.15;0.70;;;;;;;7.19;100.00;102281.69;5051680;28;20028;-83
2023/01/27 11:56:01;;;;;;;1.30;0.40;;;;;;;7.25;100.00;102283.16;5029753;28;20044;-83
2023/01/27 11:58:46;;;;;;;1.17;0.45;;;;;;;7.26;100.00;102277.81;5062693;28;20025;-83
2023/01/27 12:01:16;;;;;;;2.67;0.80;;;;;;;7.28;100.00;102281.25;5044474;28;20032;-83
2023/01/27 12:04:01;;;;;;;4.82;0.40;;;;;;;7.34;100.00;102276.59;5067551;28;20032;-83
2023/01/27 12:06:49;;;;;;;2.85;0.43;;;;;;;7.33;100.00;102275.75;5048130;28;20036;-84
2023/01/27 12:09:36;;;;;;;0.70;0.40;;;;;;;7.42;100.00;102280.53;5067106;28;20043;-83